Time;durP1;ratioP1;P1;durP2;ratioP2;P2;SDS_P1;SDS_P2;PMS_P1;PMS_P2;Temp;Humidity;BMP_temperature;BMP_pressure;BME280_temperature;BME280_humidity;BME280_pressure;Samples;Min_cycle;Max_cycle;Signal;HPM_P1;HPM_P2
2022/07/12 00:01:14;;;;;;;;;;;20.20;99.90;;;;;;4592189;19;20318;-33
2022/07/12 00:02:45;;;;;;;;;;;20.20;99.90;;;;;;4592078;19;19915;-32
2022/07/12 00:04:16;;;;;;;;;;;20.20;99.90;;;;;;4591584;19;19911;-32
2022/07/12 00:05:47;;;;;;;;;;;20.10;99.90;;;;;;4591737;19;19915;-32
2022/07/12 00:07:19;;;;;;;;;;;20.20;99.90;;;;;;4592522;19;19974;-31
2022/07/12 00:08:49;;;;;;;;;;;20.10;99.90;;;;;;4592687;19;19967;-33
2022/07/12 00:10:20;;;;;;;;;;;20.20;99.90;;;;;;4592893;19;19930;-32
2022/07/12 00:11:51;;;;;;;;;;;20.20;99.90;;;;;;4592115;19;20339;-32
2022/07/12 00:13:22;;;;;;;;;;;20.20;99.90;;;;;;4591432;19;19914;-32
2022/07/12 00:14:54;;;;;;;;;;;20.20;99.90;;;;;;4592394;19;19915;-32
2022/07/12 00:16:25;;;;;;;;;;;20.20;99.90;;;;;;4592704;19;20277;-32
2022/07/12 00:17:56;;;;;;;;;;;20.20;99.90;;;;;;4591830;19;19922;-31
2022/07/12 00:19:27;;;;;;;;;;;20.10;99.90;;;;;;4592494;19;19923;-33
2022/07/12 00:20:58;;;;;;;;;;;20.10;99.90;;;;;;4592856;19;20340;-32
2022/07/12 00:22:29;;;;;;;;;;;20.10;99.90;;;;;;4591751;19;19929;-32
2022/07/12 00:24:00;;;;;;;;;;;20.10;99.90;;;;;;4591904;19;19923;-31
2022/07/12 00:25:31;;;;;;;;;;;20.10;99.90;;;;;;4591043;19;19915;-31
2022/07/12 00:27:02;;;;;;;;;;;20.10;99.90;;;;;;4591921;19;19919;-32
2022/07/12 00:28:33;;;;;;;;;;;20.10;99.90;;;;;;4591598;19;20344;-32
2022/07/12 00:30:04;;;;;;;;;;;20.10;99.90;;;;;;4591929;19;19925;-31
2022/07/12 00:31:36;;;;;;;;;;;20.10;99.90;;;;;;4592527;19;19990;-32
2022/07/12 00:33:06;;;;;;;;;;;20.10;99.90;;;;;;4591834;19;19915;-32
2022/07/12 00:34:37;;;;;;;;;;;20.10;99.90;;;;;;4591819;19;19914;-33
2022/07/12 00:36:08;;;;;;;;;;;20.10;99.90;;;;;;4592067;19;19911;-32
2022/07/12 00:37:40;;;;;;;;;;;20.10;99.90;;;;;;4592314;19;19919;-33
2022/07/12 00:39:11;;;;;;;;;;;20.10;99.90;;;;;;4591691;19;19951;-32
2022/07/12 00:40:42;;;;;;;;;;;20.10;99.90;;;;;;4591748;19;19915;-32
2022/07/12 00:42:12;;;;;;;;;;;20.10;99.90;;;;;;4592029;19;19914;-32
2022/07/12 00:43:44;;;;;;;;;;;20.00;99.90;;;;;;4591924;19;19918;-32
2022/07/12 00:45:15;;;;;;;;;;;20.00;99.90;;;;;;4590544;19;19970;-32
2022/07/12 00:46:46;;;;;;;;;;;20.00;99.90;;;;;;4590723;19;19943;-32
2022/07/12 00:48:18;;;;;;;;;;;20.00;99.90;;;;;;4591026;19;19929;-32
2022/07/12 00:49:49;;;;;;;;;;;20.00;99.90;;;;;;4590397;19;19919;-32
2022/07/12 00:51:20;;;;;;;;;;;20.00;99.90;;;;;;4590994;19;19937;-32
2022/07/12 00:52:51;;;;;;;;;;;20.00;99.90;;;;;;4590901;19;19911;-32
2022/07/12 00:54:22;;;;;;;;;;;20.00;99.90;;;;;;4589437;19;19938;-32
2022/07/12 00:55:54;;;;;;;;;;;20.00;99.90;;;;;;4591143;19;19918;-32
2022/07/12 00:57:25;;;;;;;;;;;20.00;99.90;;;;;;4591404;19;19926;-32
2022/07/12 00:58:56;;;;;;;;;;;20.00;99.90;;;;;;4591410;19;19928;-32
2022/07/12 01:00:27;;;;;;;;;;;20.00;99.90;;;;;;4591714;19;20325;-32
2022/07/12 01:01:59;;;;;;;;;;;19.90;99.90;;;;;;4590889;19;19922;-32
2022/07/12 01:03:30;;;;;;;;;;;20.00;99.90;;;;;;4591141;19;19914;-33
2022/07/12 01:05:02;;;;;;;;;;;20.00;99.90;;;;;;4590596;19;20332;-32
2022/07/12 01:06:33;;;;;;;;;;;20.00;99.90;;;;;;4590833;19;20249;-31
2022/07/12 01:08:05;;;;;;;;;;;20.00;99.90;;;;;;4589925;19;19985;-32
2022/07/12 01:09:35;;;;;;;;;;;20.00;99.90;;;;;;4590744;19;19911;-32
2022/07/12 01:11:06;;;;;;;;;;;20.00;99.90;;;;;;4590368;19;19910;-32
2022/07/12 01:12:37;;;;;;;;;;;19.90;99.90;;;;;;4588166;19;19923;-31
2022/07/12 01:14:08;;;;;;;;;;;20.00;99.90;;;;;;4588992;19;20002;-33
2022/07/12 01:15:40;;;;;;;;;;;19.90;99.90;;;;;;4588740;19;19938;-31
2022/07/12 01:17:11;;;;;;;;;;;19.90;99.90;;;;;;4589363;19;19922;-32
2022/07/12 01:18:42;;;;;;;;;;;19.90;99.90;;;;;;4588607;19;19926;-32
2022/07/12 01:20:13;;;;;;;;;;;19.90;99.90;;;;;;4588861;19;19926;-32
2022/07/12 01:21:44;;;;;;;;;;;20.00;99.90;;;;;;4589108;19;20250;-33
2022/07/12 01:23:15;;;;;;;;;;;19.90;99.90;;;;;;4589136;19;19935;-32
2022/07/12 01:24:46;;;;;;;;;;;19.90;99.90;;;;;;4588311;19;19907;-33
2022/07/12 01:26:17;;;;;;;;;;;19.90;99.90;;;;;;4588753;19;19923;-32
2022/07/12 01:27:48;;;;;;;;;;;19.90;99.90;;;;;;4588865;19;19974;-32
2022/07/12 01:29:19;;;;;;;;;;;19.90;99.90;;;;;;4588756;19;19923;-33
2022/07/12 01:30:50;;;;;;;;;;;19.90;99.90;;;;;;4588615;19;19918;-31
2022/07/12 01:32:24;;;;;;;;;;;19.90;99.90;;;;;;4588299;19;20334;-32
2022/07/12 01:33:55;;;;;;;;;;;19.90;99.90;;;;;;4588511;19;20333;-33
2022/07/12 01:35:26;;;;;;;;;;;19.90;99.90;;;;;;4588258;19;19921;-32
2022/07/12 01:36:57;;;;;;;;;;;19.90;99.90;;;;;;4588511;19;20241;-32
2022/07/12 01:38:28;;;;;;;;;;;19.90;99.90;;;;;;4588868;19;20028;-31
2022/07/12 01:39:59;;;;;;;;;;;19.90;99.90;;;;;;4589029;19;19915;-32
2022/07/12 01:41:30;;;;;;;;;;;19.90;99.90;;;;;;4588486;19;19915;-32
2022/07/12 01:43:02;;;;;;;;;;;19.90;99.90;;;;;;4588200;19;19922;-32
2022/07/12 01:44:34;;;;;;;;;;;19.90;99.90;;;;;;4587712;19;20006;-32
2022/07/12 01:46:05;;;;;;;;;;;19.90;99.90;;;;;;4588812;19;19922;-32
2022/07/12 01:47:36;;;;;;;;;;;19.90;99.90;;;;;;4588278;19;19974;-32
2022/07/12 01:49:08;;;;;;;;;;;19.90;99.90;;;;;;4589021;19;19918;-32
2022/07/12 01:50:39;;;;;;;;;;;19.80;99.90;;;;;;4589567;19;19985;-32
2022/07/12 01:52:11;;;;;;;;;;;19.80;99.90;;;;;;4590565;19;19919;-33
2022/07/12 01:53:42;;;;;;;;;;;19.90;99.90;;;;;;4587916;19;19915;-32
2022/07/12 01:55:13;;;;;;;;;;;19.90;99.90;;;;;;4589106;19;20265;-32
2022/07/12 01:56:44;;;;;;;;;;;19.80;99.90;;;;;;4590584;19;19915;-32
2022/07/12 01:58:15;;;;;;;;;;;19.90;99.90;;;;;;4590271;19;20272;-33
2022/07/12 01:59:46;;;;;;;;;;;19.80;99.90;;;;;;4590492;19;19919;-32
2022/07/12 02:01:17;;;;;;;;;;;19.90;99.90;;;;;;4589085;19;19970;-32
2022/07/12 02:02:48;;;;;;;;;;;19.90;99.90;;;;;;4589330;19;19935;-32
2022/07/12 02:04:19;;;;;;;;;;;19.90;99.90;;;;;;4589792;19;20253;-32
2022/07/12 02:05:50;;;;;;;;;;;19.80;99.90;;;;;;4592075;19;19911;-32
2022/07/12 02:07:23;;;;;;;;;;;19.80;99.90;;;;;;4595546;19;19916;-32
2022/07/12 02:08:54;;;;;;;;;;;19.80;99.90;;;;;;4594738;19;19919;-32
2022/07/12 02:10:25;;;;;;;;;;;19.80;99.90;;;;;;4594772;19;19935;-32
2022/07/12 02:11:56;;;;;;;;;;;19.80;99.90;;;;;;4594928;19;19947;-32
2022/07/12 02:13:27;;;;;;;;;;;19.80;99.90;;;;;;4593421;19;20256;-33
2022/07/12 02:14:58;;;;;;;;;;;19.80;99.90;;;;;;4594383;19;19919;-32
2022/07/12 02:16:29;;;;;;;;;;;19.90;99.90;;;;;;4594789;19;20248;-31
2022/07/12 02:18:00;;;;;;;;;;;19.80;99.90;;;;;;4594715;19;19915;-31
2022/07/12 02:19:31;;;;;;;;;;;19.80;99.90;;;;;;4593843;19;19999;-32
2022/07/12 02:21:02;;;;;;;;;;;19.80;99.90;;;;;;4593937;19;19995;-32
2022/07/12 02:22:34;;;;;;;;;;;19.80;99.90;;;;;;4594455;19;19913;-32
2022/07/12 02:24:05;;;;;;;;;;;19.80;99.90;;;;;;4594674;19;19923;-32
2022/07/12 02:25:36;;;;;;;;;;;19.80;99.90;;;;;;4593697;19;20336;-32
2022/07/12 02:27:07;;;;;;;;;;;19.80;99.90;;;;;;4594055;19;20251;-32
2022/07/12 02:28:38;;;;;;;;;;;19.80;99.90;;;;;;4594372;19;19922;-33
2022/07/12 02:30:10;;;;;;;;;;;19.80;99.90;;;;;;4595169;19;19923;-32
2022/07/12 02:31:41;;;;;;;;;;;19.80;99.90;;;;;;4593037;19;19911;-32
2022/07/12 02:33:15;;;;;;;;;;;19.80;99.90;;;;;;4592868;19;19947;-32
2022/07/12 02:34:46;;;;;;;;;;;19.80;99.90;;;;;;4594635;19;20381;-32
2022/07/12 02:36:17;;;;;;;;;;;19.80;99.90;;;;;;4594638;19;19911;-32
2022/07/12 02:37:48;;;;;;;;;;;19.80;99.90;;;;;;4594073;19;20245;-31
2022/07/12 02:39:19;;;;;;;;;;;19.80;99.90;;;;;;4593763;19;19934;-31
2022/07/12 02:40:53;;;;;;;;;;;19.80;99.90;;;;;;4594165;19;20260;-32
2022/07/12 02:42:24;;;;;;;;;;;19.80;99.90;;;;;;4594269;19;20270;-32
2022/07/12 02:43:55;;;;;;;;;;;19.80;99.90;;;;;;4593981;19;19929;-33
2022/07/12 02:45:26;;;;;;;;;;;19.80;99.90;;;;;;4592491;19;19929;-34
2022/07/12 02:46:57;;;;;;;;;;;19.80;99.90;;;;;;4594449;19;19910;-32
2022/07/12 02:48:28;;;;;;;;;;;19.80;99.90;;;;;;4592962;19;19990;-32
2022/07/12 02:49:59;;;;;;;;;;;19.70;99.90;;;;;;4593508;19;20234;-31
2022/07/12 02:51:30;;;;;;;;;;;19.70;99.90;;;;;;4593640;19;19978;-33
2022/07/12 02:53:01;;;;;;;;;;;19.80;99.90;;;;;;4593178;19;19926;-32
2022/07/12 02:54:32;;;;;;;;;;;19.70;99.90;;;;;;4593398;19;19922;-33
2022/07/12 02:56:03;;;;;;;;;;;19.70;99.90;;;;;;4591156;19;19915;-32
2022/07/12 02:57:34;;;;;;;;;;;19.70;99.90;;;;;;4593382;19;19966;-31
2022/07/12 02:59:05;;;;;;;;;;;19.70;99.90;;;;;;4594366;19;20230;-32
2022/07/12 03:00:36;;;;;;;;;;;19.70;99.90;;;;;;4593646;19;20329;-33
2022/07/12 03:02:07;;;;;;;;;;;19.70;99.90;;;;;;4594056;19;19911;-33
2022/07/12 03:03:38;;;;;;;;;;;19.70;99.90;;;;;;4593971;19;19989;-32
2022/07/12 03:05:09;;;;;;;;;;;19.70;99.90;;;;;;4593911;19;20348;-32
2022/07/12 03:06:40;;;;;;;;;;;19.70;99.90;;;;;;4593664;19;19919;-32
2022/07/12 03:08:11;;;;;;;;;;;19.80;99.90;;;;;;4593560;19;19917;-32
2022/07/12 03:09:42;;;;;;;;;;;19.80;99.90;;;;;;4593447;19;19914;-32
2022/07/12 03:11:13;;;;;;;;;;;19.80;99.90;;;;;;4593384;19;20317;-31
2022/07/12 03:12:44;;;;;;;;;;;19.80;99.90;;;;;;4592620;19;19915;-33
2022/07/12 03:14:15;;;;;;;;;;;19.70;99.90;;;;;;4593203;19;19921;-32
2022/07/12 03:15:46;;;;;;;;;;;19.70;99.90;;;;;;4593730;19;19922;-32
2022/07/12 03:17:18;;;;;;;;;;;19.70;99.90;;;;;;4591661;19;19938;-32
2022/07/12 03:18:49;;;;;;;;;;;19.70;99.90;;;;;;4593722;19;19998;-32
2022/07/12 03:20:20;;;;;;;;;;;19.70;99.90;;;;;;4593843;19;19935;-32
2022/07/12 03:21:51;;;;;;;;;;;19.70;99.90;;;;;;4593505;19;20360;-32
2022/07/12 03:23:22;;;;;;;;;;;19.70;99.90;;;;;;4593223;19;19974;-32
2022/07/12 03:24:53;;;;;;;;;;;19.70;99.90;;;;;;4593305;19;19911;-32
2022/07/12 03:26:24;;;;;;;;;;;19.80;99.90;;;;;;4593640;19;19921;-31
2022/07/12 03:27:55;;;;;;;;;;;19.70;99.90;;;;;;4593017;19;19941;-32
2022/07/12 03:29:26;;;;;;;;;;;19.80;99.90;;;;;;4593241;19;19923;-32
2022/07/12 03:30:57;;;;;;;;;;;19.80;99.90;;;;;;4593754;19;19921;-32
2022/07/12 03:32:28;;;;;;;;;;;19.80;99.90;;;;;;4592977;19;19951;-32
2022/07/12 03:34:00;;;;;;;;;;;19.80;99.90;;;;;;4593011;19;20335;-33
2022/07/12 03:35:31;;;;;;;;;;;19.80;99.90;;;;;;4591870;19;20124;-32
2022/07/12 03:37:02;;;;;;;;;;;19.80;99.90;;;;;;4592219;19;19911;-31
2022/07/12 03:38:33;;;;;;;;;;;19.80;99.90;;;;;;4592935;19;20369;-32
2022/07/12 03:40:04;;;;;;;;;;;19.80;99.90;;;;;;4592743;19;20325;-32
2022/07/12 03:41:35;;;;;;;;;;;19.80;99.90;;;;;;4593217;19;19925;-34
2022/07/12 03:43:06;;;;;;;;;;;19.80;99.90;;;;;;4593039;19;19914;-32
2022/07/12 03:44:37;;;;;;;;;;;19.80;99.90;;;;;;4591875;19;19926;-33
2022/07/12 03:46:09;;;;;;;;;;;19.80;99.90;;;;;;4592978;19;19919;-32
2022/07/12 03:47:40;;;;;;;;;;;19.80;99.90;;;;;;4593157;19;19917;-32
2022/07/12 03:49:11;;;;;;;;;;;19.80;99.90;;;;;;4593658;19;19915;-33
2022/07/12 03:50:42;;;;;;;;;;;19.80;99.90;;;;;;4592533;19;20395;-33
2022/07/12 03:52:13;;;;;;;;;;;19.80;99.90;;;;;;4592903;19;19927;-32
2022/07/12 03:53:44;;;;;;;;;;;19.80;99.90;;;;;;4591752;19;19915;-32
2022/07/12 03:55:15;;;;;;;;;;;19.80;99.90;;;;;;4592273;19;19942;-32
2022/07/12 03:58:35;;;;;;;;;;;19.80;99.90;;;;;;4592631;19;19915;-32
2022/07/12 04:00:11;;;;;;;;;;;19.80;99.90;;;;;;4592913;19;19915;-31
2022/07/12 04:01:43;;;;;;;;;;;19.80;99.90;;;;;;4592375;19;20351;-33
2022/07/12 04:03:14;;;;;;;;;;;19.80;99.90;;;;;;4592245;19;19939;-32
2022/07/12 04:04:45;;;;;;;;;;;19.80;99.90;;;;;;4592470;19;19923;-32
2022/07/12 04:06:16;;;;;;;;;;;19.80;99.90;;;;;;4590931;19;19926;-31
2022/07/12 04:07:47;;;;;;;;;;;19.80;99.90;;;;;;4591933;19;20328;-32
2022/07/12 04:09:18;;;;;;;;;;;19.80;99.90;;;;;;4591992;19;19911;-32
2022/07/12 04:10:49;;;;;;;;;;;19.90;99.90;;;;;;4592549;19;19921;-32
2022/07/12 04:12:20;;;;;;;;;;;19.90;99.90;;;;;;4592055;19;19915;-32
2022/07/12 04:13:51;;;;;;;;;;;19.80;99.90;;;;;;4592796;19;19918;-32
2022/07/12 04:15:22;;;;;;;;;;;19.90;99.90;;;;;;4592209;19;19943;-32
2022/07/12 04:16:57;;;;;;;;;;;19.90;99.90;;;;;;4592362;19;19915;-31
2022/07/12 04:18:27;;;;;;;;;;;19.90;99.90;;;;;;4592340;19;19996;-31
2022/07/12 04:19:58;;;;;;;;;;;20.00;99.90;;;;;;4591442;19;19926;-33
2022/07/12 04:21:29;;;;;;;;;;;20.00;99.90;;;;;;4593934;19;19918;-32
2022/07/12 04:23:01;;;;;;;;;;;20.00;99.90;;;;;;4591727;19;20010;-32
2022/07/12 04:24:32;;;;;;;;;;;20.10;99.90;;;;;;4591662;19;19914;-31
2022/07/12 04:26:03;;;;;;;;;;;20.10;99.90;;;;;;4590824;19;19919;-31
2022/07/12 04:27:34;;;;;;;;;;;20.10;99.90;;;;;;4590604;19;19918;-31
2022/07/12 04:29:06;;;;;;;;;;;20.10;99.90;;;;;;4591770;19;19930;-31
2022/07/12 04:30:37;;;;;;;;;;;20.20;99.90;;;;;;4592332;19;19919;-33
2022/07/12 04:32:08;;;;;;;;;;;20.20;99.90;;;;;;4591572;19;19933;-32
2022/07/12 04:33:39;;;;;;;;;;;20.20;99.90;;;;;;4590944;19;19933;-31
2022/07/12 04:35:10;;;;;;;;;;;20.20;99.90;;;;;;4592180;19;19915;-30
2022/07/12 04:36:41;;;;;;;;;;;20.20;99.90;;;;;;4592133;19;19925;-32
2022/07/12 04:38:12;;;;;;;;;;;20.20;99.90;;;;;;4592094;19;20256;-31
2022/07/12 04:39:43;;;;;;;;;;;20.30;99.90;;;;;;4591833;19;19986;-32
2022/07/12 04:41:15;;;;;;;;;;;20.40;99.90;;;;;;4591223;19;19978;-31
2022/07/12 04:42:46;;;;;;;;;;;20.50;99.90;;;;;;4590640;19;19936;-31
2022/07/12 04:44:17;;;;;;;;;;;20.60;99.90;;;;;;4587406;19;19915;-31
2022/07/12 04:45:48;;;;;;;;;;;20.60;99.90;;;;;;4589197;19;19925;-33
2022/07/12 04:47:19;;;;;;;;;;;20.70;99.90;;;;;;4591998;19;19919;-31
2022/07/12 04:48:50;;;;;;;;;;;20.70;99.90;;;;;;4591343;19;19918;-32
2022/07/12 04:50:20;;;;;;;;;;;20.70;99.90;;;;;;4591673;19;19914;-31
2022/07/12 04:51:51;;;;;;;;;;;20.80;99.90;;;;;;4591580;19;19937;-32
2022/07/12 04:53:23;;;;;;;;;;;20.80;99.90;;;;;;4590647;19;19919;-33
2022/07/12 04:54:53;;;;;;;;;;;20.80;99.90;;;;;;4590657;19;19915;-32
2022/07/12 04:56:24;;;;;;;;;;;20.80;99.90;;;;;;4590326;19;19915;-32
2022/07/12 04:57:55;;;;;;;;;;;20.90;99.90;;;;;;4590300;19;19919;-31
2022/07/12 04:59:26;;;;;;;;;;;20.90;99.90;;;;;;4589765;19;19918;-31
2022/07/12 05:00:57;;;;;;;;;;;20.90;99.90;;;;;;4591647;19;19927;-32
2022/07/12 05:02:28;;;;;;;;;;;20.90;99.90;;;;;;4591684;19;19926;-32
2022/07/12 05:03:59;;;;;;;;;;;20.90;99.90;;;;;;4592056;19;20352;-32
2022/07/12 05:05:30;;;;;;;;;;;20.90;99.90;;;;;;4591631;19;20020;-32
2022/07/12 05:07:01;;;;;;;;;;;20.90;99.90;;;;;;4590162;19;19998;-31
2022/07/12 05:08:33;;;;;;;;;;;20.90;99.90;;;;;;4590347;19;20297;-33
2022/07/12 05:10:04;;;;;;;;;;;20.90;99.90;;;;;;4589176;19;19922;-32
2022/07/12 05:11:35;;;;;;;;;;;20.90;99.90;;;;;;4589466;19;19971;-31
2022/07/12 05:13:06;;;;;;;;;;;20.90;99.90;;;;;;4588851;19;19918;-32
2022/07/12 05:14:37;;;;;;;;;;;20.80;99.90;;;;;;4591603;19;19921;-32
2022/07/12 05:16:08;;;;;;;;;;;20.80;99.90;;;;;;4591211;19;20356;-32
2022/07/12 05:17:40;;;;;;;;;;;20.80;99.90;;;;;;4590027;19;20317;-33
2022/07/12 05:19:10;;;;;;;;;;;20.80;99.90;;;;;;4589224;19;19922;-33
2022/07/12 05:20:41;;;;;;;;;;;20.80;99.90;;;;;;4589175;19;19911;-32
2022/07/12 05:22:12;;;;;;;;;;;20.80;99.90;;;;;;4588954;19;20333;-32
2022/07/12 05:23:44;;;;;;;;;;;20.80;99.90;;;;;;4588098;19;19926;-32
2022/07/12 05:25:15;;;;;;;;;;;20.90;99.90;;;;;;4591149;19;19911;-31
2022/07/12 05:26:46;;;;;;;;;;;20.90;99.90;;;;;;4590823;19;19915;-32
2022/07/12 05:28:17;;;;;;;;;;;20.80;99.90;;;;;;4590774;19;19911;-32
2022/07/12 05:29:48;;;;;;;;;;;20.80;99.90;;;;;;4590544;19;19929;-32
2022/07/12 05:31:19;;;;;;;;;;;20.80;99.90;;;;;;4590000;19;19911;-32
2022/07/12 05:32:50;;;;;;;;;;;20.80;99.90;;;;;;4588480;19;19921;-31
2022/07/12 05:34:21;;;;;;;;;;;20.80;99.90;;;;;;4588565;19;20382;-32
2022/07/12 05:35:52;;;;;;;;;;;20.70;99.90;;;;;;4588724;19;19923;-31
2022/07/12 05:37:25;;;;;;;;;;;20.70;99.90;;;;;;4589317;19;19918;-30
2022/07/12 05:38:56;;;;;;;;;;;20.70;99.90;;;;;;4591366;19;19942;-30
2022/07/12 05:40:26;;;;;;;;;;;20.70;99.90;;;;;;4590191;19;19922;-31
2022/07/12 05:41:58;;;;;;;;;;;20.60;99.90;;;;;;4594973;19;20234;-32
2022/07/12 05:43:28;;;;;;;;;;;20.70;99.90;;;;;;4594794;19;19922;-30
2022/07/12 05:44:59;;;;;;;;;;;20.70;99.90;;;;;;4593210;19;19915;-31
2022/07/12 05:46:30;;;;;;;;;;;20.80;99.90;;;;;;4594670;19;19921;-33
2022/07/12 05:48:02;;;;;;;;;;;20.80;99.90;;;;;;4593774;19;19935;-32
2022/07/12 05:49:33;;;;;;;;;;;20.80;99.90;;;;;;4595029;19;19915;-29
2022/07/12 05:54:44;;;;;;;;;;;21.00;99.90;;;;;;4595034;19;19926;-33
2022/07/12 05:56:15;;;;;;;;;;;21.10;99.90;;;;;;4595211;19;19914;-30
2022/07/12 05:57:46;;;;;;;;;;;21.10;99.90;;;;;;4593866;19;19919;-32
2022/07/12 05:59:17;;;;;;;;;;;21.30;99.90;;;;;;4594724;19;19984;-30
2022/07/12 06:00:48;;;;;;;;;;;19.70;99.90;;;;;;4595006;19;19931;-32
2022/07/12 06:02:19;;;;;;;2.90;2.10;;;18.00;99.90;;;;;;4594715;19;19915;-33
2022/07/12 06:03:50;;;;;;;;;;;17.40;99.90;;;;;;4594998;19;20011;-32
2022/07/12 06:05:22;;;;;;;;;;;17.30;99.90;;;;;;4594511;19;19962;-31
2022/07/12 06:06:53;;;;;;;;;;;17.20;99.90;;;;;;4594638;19;19931;-31
2022/07/12 06:08:24;;;;;;;3.58;1.85;;;17.20;99.90;;;;;;4593942;19;20245;-31
2022/07/12 06:11:41;;;;;;;2.45;2.00;;;17.20;99.90;;;;;;4608152;19;20776;-37
2022/07/12 06:13:12;;;;;;;;;;;17.20;99.90;;;;;;4613748;19;20040;-33
2022/07/12 06:14:43;;;;;;;;;;;17.20;99.90;;;;;;4610047;19;19915;-39
2022/07/12 06:16:14;;;;;;;;;;;17.20;99.90;;;;;;4609986;19;20262;-38
2022/07/12 06:17:45;;;;;;;;;;;17.20;99.90;;;;;;4612704;19;19915;-31
2022/07/12 06:19:16;;;;;;;;;;;17.20;99.90;;;;;;4614660;19;19935;-35
2022/07/12 06:20:47;;;;;;;;;;;17.20;99.90;;;;;;4614246;19;19922;-35
2022/07/12 06:22:18;;;;;;;;;;;17.20;99.90;;;;;;4613143;19;19922;-36
2022/07/12 06:23:49;;;;;;;;;;;17.20;99.90;;;;;;4614052;19;19936;-41
2022/07/12 06:25:20;;;;;;;;;;;17.20;99.90;;;;;;4614898;19;20296;-36
2022/07/12 06:26:51;;;;;;;;;;;17.20;99.90;;;;;;4614686;19;19962;-36
2022/07/12 06:28:22;;;;;;;;;;;17.20;99.90;;;;;;4612671;19;19910;-37
2022/07/12 06:29:53;;;;;;;;;;;17.20;99.90;;;;;;4613455;19;19910;-36
2022/07/12 06:31:25;;;;;;;;;;;17.30;99.90;;;;;;4615083;19;19941;-37
2022/07/12 06:32:56;;;;;;;;;;;17.30;99.90;;;;;;4615627;19;19922;-35
2022/07/12 06:34:26;;;;;;;;;;;17.30;99.90;;;;;;4614809;19;19935;-39
2022/07/12 06:35:57;;;;;;;;;;;17.30;99.90;;;;;;4614929;19;19922;-35
2022/07/12 06:37:29;;;;;;;;;;;17.30;99.90;;;;;;4613711;19;20356;-37
2022/07/12 06:38:59;;;;;;;;;;;17.30;99.90;;;;;;4614425;19;19926;-36
2022/07/12 06:40:30;;;;;;;;;;;17.30;99.90;;;;;;4614885;19;19917;-37
2022/07/12 06:42:05;;;;;;;;;;;17.30;99.90;;;;;;4612742;19;19918;-33
2022/07/12 06:43:36;;;;;;;;;;;17.30;99.90;;;;;;4614171;19;19922;-33
2022/07/12 06:45:07;;;;;;;;;;;17.30;99.90;;;;;;4613999;19;19929;-36
2022/07/12 06:46:38;;;;;;;;;;;17.40;99.90;;;;;;4612676;19;19941;-39
2022/07/12 06:48:09;;;;;;;;;;;17.40;99.90;;;;;;4611432;19;19926;-32
2022/07/12 06:49:40;;;;;;;;;;;17.40;99.90;;;;;;4612066;19;19918;-36
2022/07/12 06:51:11;;;;;;;;;;;17.40;99.90;;;;;;4612210;19;20346;-38
2022/07/12 06:52:42;;;;;;;;;;;17.40;99.90;;;;;;4612392;19;19915;-37
2022/07/12 06:54:13;;;;;;;;;;;17.50;99.90;;;;;;4613371;19;19918;-36
2022/07/12 06:55:44;;;;;;;;;;;17.50;99.90;;;;;;4612331;19;20398;-37
2022/07/12 06:57:15;;;;;;;;;;;17.50;99.90;;;;;;4612219;19;19942;-35
2022/07/12 06:58:46;;;;;;;;;;;17.50;99.90;;;;;;4612460;19;19918;-37
2022/07/12 07:00:17;;;;;;;;;;;17.50;99.90;;;;;;4612923;19;20251;-35
2022/07/12 07:01:49;;;;;;;;;;;17.50;99.90;;;;;;4611988;19;19982;-33
2022/07/12 07:03:20;;;;;;;;;;;17.50;99.90;;;;;;4612431;19;19938;-43
2022/07/12 07:04:51;;;;;;;;;;;17.50;99.90;;;;;;4612370;19;19915;-33
2022/07/12 07:06:22;;;;;;;;;;;17.50;99.90;;;;;;4612276;19;20346;-34
2022/07/12 07:07:53;;;;;;;;;;;17.60;99.90;;;;;;4612177;19;19918;-43
2022/07/12 07:09:24;;;;;;;;;;;17.60;99.90;;;;;;4611460;19;19954;-35
2022/07/12 07:10:55;;;;;;;;;;;17.60;99.90;;;;;;4610755;19;20367;-41
2022/07/12 07:12:26;;;;;;;;;;;17.60;99.90;;;;;;4612790;19;19925;-36
2022/07/12 07:13:57;;;;;;;;;;;17.60;99.90;;;;;;4613118;19;19915;-36
2022/07/12 07:15:28;;;;;;;;;;;17.60;99.90;;;;;;4613930;19;19922;-33
2022/07/12 07:16:59;;;;;;;;;;;17.70;99.90;;;;;;4611907;19;19907;-38
2022/07/12 07:18:30;;;;;;;;;;;17.70;99.90;;;;;;4613666;19;19914;-40
2022/07/12 07:20:01;;;;;;;;;;;17.70;99.90;;;;;;4613696;19;20271;-35
2022/07/12 07:21:32;;;;;;;;;;;17.70;99.90;;;;;;4603129;19;19915;-36
2022/07/12 07:23:03;;;;;;;;;;;17.70;99.90;;;;;;4596630;19;20320;-37
2022/07/12 07:24:33;;;;;;;;;;;17.70;99.90;;;;;;4595936;19;19935;-35
2022/07/12 07:26:05;;;;;;;;;;;17.70;99.90;;;;;;4595603;19;19919;-34
2022/07/12 07:27:38;;;;;;;;;;;17.80;99.90;;;;;;4596346;19;19978;-36
2022/07/12 07:30:59;;;;;;;;;;;17.80;99.90;;;;;;4595052;19;19931;-35
2022/07/12 07:32:31;;;;;;;;;;;17.80;99.90;;;;;;4595500;19;19966;-37
2022/07/12 07:34:02;;;;;;;;;;;17.80;99.90;;;;;;4595073;19;19915;-38
2022/07/12 07:35:33;;;;;;;;;;;17.80;99.90;;;;;;4594557;19;20349;-36
2022/07/12 07:37:04;;;;;;;;;;;17.80;99.90;;;;;;4594781;19;19910;-38
2022/07/12 07:38:35;;;;;;;;;;;17.80;99.90;;;;;;4593718;19;20010;-34
2022/07/12 07:40:06;;;;;;;;;;;17.90;99.90;;;;;;4593981;19;19919;-37
2022/07/12 07:41:37;;;;;;;;;;;17.90;99.90;;;;;;4593554;19;19922;-33
2022/07/12 07:43:08;;;;;;;;;;;17.90;99.90;;;;;;4593363;19;19915;-36
2022/07/12 07:44:39;;;;;;;;;;;17.90;99.90;;;;;;4593615;19;20343;-32
2022/07/12 07:46:10;;;;;;;;;;;18.00;99.90;;;;;;4594049;19;19911;-34
2022/07/12 07:47:45;;;;;;;;;;;17.90;99.90;;;;;;4593919;19;19941;-40
2022/07/12 07:49:16;;;;;;;;;;;18.00;99.90;;;;;;4592973;19;19918;-38
2022/07/12 07:50:47;;;;;;;;;;;18.00;99.90;;;;;;4594155;19;19919;-32
2022/07/12 07:52:18;;;;;;;;;;;18.00;99.90;;;;;;4594032;19;20253;-32
2022/07/12 07:53:49;;;;;;;;;;;18.10;99.90;;;;;;4592871;19;19990;-36
2022/07/12 07:55:20;;;;;;;;;;;18.10;99.90;;;;;;4594333;19;19915;-37
2022/07/12 07:56:51;;;;;;;;;;;18.10;99.90;;;;;;4592383;19;20255;-39
2022/07/12 07:58:22;;;;;;;;;;;18.10;99.90;;;;;;4593012;19;19949;-37
2022/07/12 07:59:53;;;;;;;;;;;18.10;99.90;;;;;;4592782;19;20332;-38
2022/07/12 08:01:42;;;;;;;;;;;18.10;99.90;;;;;;4592647;19;19919;-41
2022/07/12 08:03:13;;;;;;;;;;;18.10;99.90;;;;;;4592132;19;20252;-41
2022/07/12 08:04:44;;;;;;;;;;;18.10;99.90;;;;;;4593371;19;19923;-38
2022/07/12 08:06:15;;;;;;;;;;;18.10;99.90;;;;;;4592185;19;19919;-42
2022/07/12 08:07:45;;;;;;;;;;;18.10;99.90;;;;;;4593348;19;19933;-35
2022/07/12 08:09:17;;;;;;;;;;;18.20;99.90;;;;;;4593806;19;19930;-36
2022/07/12 08:10:49;;;;;;;;;;;18.20;99.90;;;;;;4592209;19;19938;-36
2022/07/12 08:12:20;;;;;;;;;;;18.20;99.90;;;;;;4592361;19;19927;-40
2022/07/12 08:13:50;;;;;;;;;;;18.20;99.90;;;;;;4592734;19;19914;-35
2022/07/12 08:15:22;;;;;;;;;;;18.20;99.90;;;;;;4591478;19;20364;-35
2022/07/12 08:16:53;;;;;;;;;;;18.30;99.90;;;;;;4591907;19;20290;-35
2022/07/12 08:18:24;;;;;;;;;;;18.30;99.90;;;;;;4592416;19;19925;-37
2022/07/12 08:19:55;;;;;;;;;;;18.30;99.90;;;;;;4591884;19;19918;-39
2022/07/12 08:21:26;;;;;;;;;;;18.30;99.90;;;;;;4591433;19;20312;-40
2022/07/12 08:22:57;;;;;;;;;;;18.30;99.90;;;;;;4590095;19;20355;-41
2022/07/12 08:24:28;;;;;;;;;;;18.40;99.90;;;;;;4592263;19;19918;-34
2022/07/12 08:25:59;;;;;;;;;;;18.40;99.90;;;;;;4591752;19;19918;-35
2022/07/12 08:27:30;;;;;;;;;;;18.40;99.90;;;;;;4590072;19;19994;-34
2022/07/12 08:29:01;;;;;;;;;;;18.40;99.90;;;;;;4589736;19;19927;-34
2022/07/12 08:30:32;;;;;;;;;;;18.40;99.90;;;;;;4588612;19;19986;-40
2022/07/12 08:32:03;;;;;;;;;;;18.40;99.90;;;;;;4591219;19;19944;-41
2022/07/12 08:33:34;;;;;;;;;;;18.50;99.90;;;;;;4587650;19;19982;-31
2022/07/12 08:35:05;;;;;;;;;;;18.50;99.90;;;;;;4589446;19;19918;-36
2022/07/12 08:36:36;;;;;;;;;;;18.50;99.90;;;;;;4590765;19;19926;-36
2022/07/12 08:38:07;;;;;;;;;;;18.50;99.90;;;;;;4593029;19;19947;-37
2022/07/12 08:39:38;;;;;;;;;;;18.50;99.90;;;;;;4592220;19;20272;-35
2022/07/12 08:41:10;;;;;;;;;;;18.50;99.90;;;;;;4592370;19;19923;-36
2022/07/12 08:42:41;;;;;;;;;;;18.60;99.90;;;;;;4590982;19;19921;-38
2022/07/12 08:44:12;;;;;;;;;;;18.60;99.90;;;;;;4591811;19;19919;-37
2022/07/12 08:45:43;;;;;;;;;;;18.60;99.90;;;;;;4591499;19;20390;-40
2022/07/12 08:47:15;;;;;;;;;;;18.60;99.90;;;;;;4591361;19;19918;-38
2022/07/12 08:48:45;;;;;;;;;;;18.60;99.90;;;;;;4591372;19;19918;-38
2022/07/12 08:50:17;;;;;;;;;;;18.70;99.90;;;;;;4589965;19;19918;-36
2022/07/12 08:51:48;;;;;;;;;;;18.70;99.90;;;;;;4592143;19;20363;-37
2022/07/12 08:53:19;;;;;;;;;;;18.70;99.90;;;;;;4592251;19;19919;-37
2022/07/12 08:54:50;;;;;;;;;;;18.70;99.90;;;;;;4592430;19;19925;-40
2022/07/12 08:56:32;;;;;;;;;;;18.70;99.90;;;;;;4592493;19;19915;-39
2022/07/12 08:58:05;;;;;;;;;;;18.70;99.90;;;;;;4592477;19;19926;-43
2022/07/12 08:59:36;;;;;;;;;;;18.80;99.90;;;;;;4591795;19;20247;-40